createdAt,value
2018-04-01T00:01:20.404Z,82.92
2018-04-01T00:03:48.604Z,82.90
2018-04-01T00:06:16.056Z,82.78
2018-04-01T00:08:43.566Z,82.28
2018-04-01T00:11:11.797Z,82.47
2018-04-01T00:13:39.245Z,82.75
2018-04-01T00:16:06.692Z,82.62
2018-04-01T00:18:34.154Z,82.52
2018-04-01T00:21:01.600Z,82.61
2018-04-01T00:23:29.828Z,81.90
2018-04-01T00:25:57.336Z,81.47
2018-04-01T00:28:26.279Z,80.78
2018-04-01T00:30:53.735Z,80.83
2018-04-01T00:33:21.202Z,80.36
2018-04-01T00:35:48.672Z,80.58
2018-04-01T00:38:16.131Z,80.68
2018-04-01T00:40:43.572Z,79.74
2018-04-01T00:43:11.037Z,80.26
2018-04-01T00:45:38.484Z,80.20
2018-04-01T00:48:05.991Z,79.85
2018-04-01T00:50:33.431Z,79.56
2018-04-01T00:53:00.912Z,79.71
2018-04-01T00:55:28.375Z,79.22
2018-04-01T00:57:55.820Z,79.28
2018-04-01T01:00:23.276Z,79.00
2018-04-01T01:02:50.722Z,78.48
2018-04-01T01:05:18.192Z,79.26
2018-04-01T01:07:45.638Z,78.64
2018-04-01T01:10:13.079Z,78.46
2018-04-01T01:12:41.304Z,78.53
2018-04-01T01:15:08.749Z,78.22
2018-04-01T01:17:36.220Z,78.17
2018-04-01T01:20:03.675Z,77.73
2018-04-01T01:22:31.114Z,77.53
2018-04-01T01:25:00.831Z,77.19
2018-04-01T01:27:29.037Z,77.18
2018-04-01T01:29:56.494Z,77.48
2018-04-01T01:32:23.955Z,76.66
2018-04-01T01:34:53.400Z,76.64
2018-04-01T01:37:20.858Z,76.64
2018-04-01T01:39:50.316Z,76.31
2018-04-01T01:42:18.537Z,76.19
2018-04-01T01:44:46.015Z,76.68
2018-04-01T01:47:13.472Z,76.59
2018-04-01T01:49:40.936Z,76.50
2018-04-01T01:52:08.396Z,75.96
2018-04-01T01:54:35.842Z,76.36
2018-04-01T01:57:03.300Z,76.81
2018-04-01T01:59:30.755Z,76.41
2018-04-01T02:01:58.219Z,75.55
2018-04-01T02:04:25.675Z,76.76
2018-04-01T02:06:53.124Z,75.65
2018-04-01T02:09:20.576Z,76.16
2018-04-01T02:11:50.035Z,76.15
2018-04-01T02:14:17.479Z,76.33
2018-04-01T02:16:44.946Z,76.76
2018-04-01T02:19:12.395Z,76.80
2018-04-01T02:21:39.835Z,77.03
2018-04-01T02:24:07.316Z,77.37
2018-04-01T02:26:34.769Z,77.20
2018-04-01T02:29:02.215Z,77.27
2018-04-01T02:31:30.513Z,78.16
2018-04-01T02:33:57.901Z,78.65
2018-04-01T02:36:25.365Z,79.46
2018-04-01T02:38:52.817Z,80.44
2018-04-01T02:41:20.265Z,81.14
2018-04-01T02:43:47.884Z,81.90
2018-04-01T02:46:15.330Z,82.27
2018-04-01T02:48:43.156Z,82.51
2018-04-01T02:51:10.618Z,83.91
2018-04-01T02:53:38.065Z,84.32
2018-04-01T02:56:06.292Z,86.05
2018-04-01T02:58:33.755Z,86.53
2018-04-01T03:01:01.216Z,87.24
2018-04-01T03:03:28.684Z,87.79
2018-04-01T03:05:56.140Z,88.04
2018-04-01T03:08:23.586Z,87.92
2018-04-01T03:10:51.053Z,85.35
2018-04-01T03:13:18.498Z,84.36
2018-04-01T03:15:45.945Z,85.65
2018-04-01T03:18:13.407Z,85.87
2018-04-01T03:20:40.857Z,85.20
2018-04-01T03:23:09.096Z,85.92
2018-04-01T03:25:36.550Z,86.69
2018-04-01T03:28:04.018Z,86.68
2018-04-01T03:30:31.477Z,85.88
2018-04-01T03:32:58.928Z,87.68
2018-04-01T03:35:26.798Z,88.15
2018-04-01T03:37:54.270Z,89.31
2018-04-01T03:40:21.719Z,89.20
2018-04-01T03:42:49.172Z,89.67
2018-04-01T03:45:16.630Z,90.18
2018-04-01T03:47:44.098Z,90.07
2018-04-01T03:50:11.549Z,90.05
2018-04-01T03:52:39.011Z,89.90
2018-04-01T03:55:06.456Z,87.00
2018-04-01T03:57:34.682Z,87.78
2018-04-01T04:00:02.123Z,87.29
2018-04-01T04:02:29.581Z,87.11
2018-04-01T04:04:57.041Z,88.01
2018-04-01T04:07:24.492Z,87.90
2018-04-01T04:09:51.943Z,88.00
2018-04-01T04:12:20.167Z,87.86
2018-04-01T04:14:47.616Z,87.97
2018-04-01T04:17:15.081Z,87.82
2018-04-01T04:19:42.545Z,87.33
2018-04-01T04:22:09.984Z,85.62
2018-04-01T04:24:37.436Z,85.20
2018-04-01T04:27:05.660Z,85.24
2018-04-01T04:29:33.122Z,85.40
2018-04-01T04:32:00.580Z,86.49
2018-04-01T04:34:28.026Z,85.67
2018-04-01T04:36:55.473Z,86.35
2018-04-01T04:39:22.942Z,86.63
2018-04-01T04:41:50.410Z,86.27
2018-04-01T04:44:17.853Z,86.60
2018-04-01T04:46:46.081Z,86.33
2018-04-01T04:49:13.524Z,86.55
2018-04-01T04:51:40.980Z,86.93
2018-04-01T04:54:08.440Z,86.78
2018-04-01T04:56:35.896Z,86.83
2018-04-01T04:59:03.353Z,86.41
2018-04-01T05:01:30.814Z,86.83
2018-04-01T05:03:58.263Z,87.21
2018-04-01T05:06:25.723Z,88.09
2018-04-01T05:08:53.956Z,88.13
2018-04-01T05:11:21.405Z,87.22
2018-04-01T05:13:48.879Z,87.67
2018-04-01T05:16:16.336Z,88.60
2018-04-01T05:18:43.776Z,87.88
2018-04-01T05:21:11.240Z,87.78
2018-04-01T05:23:38.692Z,87.73
2018-04-01T05:26:06.174Z,86.51
2018-04-01T05:28:33.613Z,86.25
2018-04-01T05:31:01.064Z,85.71
2018-04-01T05:33:29.285Z,85.34
2018-04-01T05:35:56.744Z,84.30
2018-04-01T05:38:24.191Z,84.76
2018-04-01T05:40:51.648Z,84.48
2018-04-01T05:43:19.097Z,85.44
2018-04-01T05:45:46.565Z,86.21
2018-04-01T05:48:14.029Z,86.35
2018-04-01T05:50:41.482Z,85.82
2018-04-01T05:53:08.931Z,86.23
2018-04-01T05:55:37.153Z,86.37
2018-04-01T05:58:04.709Z,87.44
2018-04-01T06:00:32.151Z,86.30
2018-04-01T06:02:59.602Z,86.66
2018-04-01T06:05:27.821Z,87.11
2018-04-01T06:07:55.276Z,87.59
2018-04-01T06:10:22.728Z,87.60
2018-04-01T06:12:50.183Z,87.87
2018-04-01T06:15:18.414Z,88.31
2018-04-01T06:17:45.912Z,86.42
2018-04-01T06:20:14.124Z,86.98
2018-04-01T06:25:23.594Z,86.62
2018-04-01T06:27:51.094Z,85.62
2018-04-01T06:30:18.481Z,85.50
2018-04-01T06:32:45.935Z,85.43
2018-04-01T06:35:14.392Z,85.03
2018-04-01T06:37:41.835Z,84.74
2018-04-01T06:40:09.360Z,85.10
2018-04-01T06:42:36.759Z,85.16
2018-04-01T06:45:04.208Z,85.66
2018-04-01T06:47:31.660Z,85.43
2018-04-01T06:49:59.126Z,84.28
2018-04-01T06:52:26.584Z,84.00
2018-04-01T06:54:54.035Z,83.88
2018-04-01T06:57:21.496Z,83.05
2018-04-01T06:59:48.939Z,82.88
2018-04-01T07:02:16.420Z,82.09
2018-04-01T07:04:43.872Z,79.91
2018-04-01T07:07:11.335Z,80.39
2018-04-01T07:09:38.797Z,81.42
2018-04-01T07:12:06.313Z,79.91
2018-04-01T07:14:33.707Z,78.71
2018-04-01T07:17:02.148Z,80.01
2018-04-01T07:19:29.610Z,80.78
2018-04-01T07:21:57.060Z,81.35
2018-04-01T07:24:24.521Z,81.48
2018-04-01T07:26:51.980Z,80.31
2018-04-01T07:29:19.436Z,80.51
2018-04-01T07:31:46.900Z,81.56
2018-04-01T07:34:14.365Z,80.52
2018-04-01T07:36:41.812Z,80.15
2018-04-01T07:39:09.272Z,79.46
2018-04-01T07:41:36.732Z,78.95
2018-04-01T07:44:04.196Z,78.28
2018-04-01T07:46:31.652Z,79.43
2018-04-01T07:48:59.108Z,78.64
2018-04-01T07:51:27.334Z,79.79
2018-04-01T07:53:54.791Z,79.97
2018-04-01T07:56:22.236Z,81.12
2018-04-01T07:58:49.728Z,81.79
2018-04-01T08:01:17.176Z,80.97
2018-04-01T08:03:44.630Z,80.36
2018-04-01T08:06:12.093Z,80.95
2018-04-01T08:08:39.540Z,77.97
2018-04-01T08:11:06.996Z,78.20
2018-04-01T08:13:34.449Z,78.26
2018-04-01T08:16:01.911Z,79.19
2018-04-01T08:18:29.379Z,79.34
2018-04-01T08:20:56.826Z,79.41
2018-04-01T08:23:24.327Z,79.52
2018-04-01T08:25:51.761Z,78.58
2018-04-01T08:28:19.213Z,80.69
2018-04-01T08:30:47.440Z,79.17
2018-04-01T08:33:15.578Z,79.65
2018-04-01T08:35:43.040Z,79.67
2018-04-01T08:38:10.502Z,79.92
2018-04-01T08:40:37.953Z,79.58
2018-04-01T08:43:06.180Z,80.11
2018-04-01T08:45:33.634Z,79.00
2018-04-01T08:48:01.107Z,79.00
2018-04-01T08:50:29.804Z,77.35
2018-04-01T08:52:58.810Z,77.11
2018-04-01T08:55:26.249Z,76.36
2018-04-01T08:57:53.699Z,76.20
2018-04-01T09:00:21.159Z,75.80
2018-04-01T09:02:48.616Z,75.87
2018-04-01T09:05:16.065Z,73.70
2018-04-01T09:07:43.520Z,73.51
2018-04-01T09:10:10.972Z,75.21
2018-04-01T09:12:39.418Z,72.96
2018-04-01T09:15:06.873Z,75.41
2018-04-01T09:17:34.324Z,74.97
2018-04-01T09:20:01.793Z,72.78
2018-04-01T09:22:29.331Z,71.32
2018-04-01T09:24:56.782Z,71.37
2018-04-01T09:27:24.241Z,70.52
2018-04-01T09:29:51.706Z,68.77
2018-04-01T09:32:19.152Z,68.91
2018-04-01T09:34:47.389Z,68.63
2018-04-01T09:37:14.834Z,67.34
2018-04-01T09:39:42.764Z,67.75
2018-04-01T09:42:10.403Z,65.93
2018-04-01T09:44:37.857Z,62.56
2018-04-01T09:47:06.621Z,64.56
2018-04-01T09:49:34.066Z,60.92
2018-04-01T09:52:01.744Z,58.86
2018-04-01T09:54:29.188Z,56.19
2018-04-01T09:56:56.646Z,57.82
2018-04-01T09:59:24.873Z,54.63
2018-04-01T10:01:53.119Z,45.35
2018-04-01T10:04:21.370Z,38.61
2018-04-01T10:06:50.402Z,39.18
2018-04-01T10:09:18.646Z,39.09
2018-04-01T10:11:47.669Z,48.07
2018-04-01T10:14:15.919Z,50.75
2018-04-01T10:16:44.940Z,52.59
2018-04-01T10:19:13.193Z,52.40
2018-04-01T10:21:41.448Z,53.51
2018-04-01T10:24:10.076Z,51.49
2018-04-01T10:26:40.322Z,53.27
2018-04-01T10:29:08.576Z,51.71
2018-04-01T10:31:37.598Z,48.38
2018-04-01T10:34:05.854Z,45.40
2018-04-01T10:36:34.876Z,39.14
2018-04-01T10:39:03.145Z,33.72
2018-04-01T10:41:32.160Z,37.84
2018-04-01T10:44:00.716Z,46.57
2018-04-01T10:46:29.201Z,47.58
2018-04-01T10:48:58.220Z,52.80
2018-04-01T10:51:26.464Z,54.80
2018-04-01T10:53:56.615Z,55.16
2018-04-01T10:56:24.086Z,54.84
2018-04-01T10:58:52.817Z,55.40
2018-04-01T11:01:20.306Z,58.58
2018-04-01T11:03:47.756Z,58.71
2018-04-01T11:06:15.224Z,59.24
2018-04-01T11:08:42.684Z,50.39
2018-04-01T11:11:10.156Z,46.12
2018-04-01T11:13:37.615Z,42.97
2018-04-01T11:16:05.080Z,43.06
2018-04-01T11:18:32.591Z,43.85
2018-04-01T11:21:00.087Z,48.97
2018-04-01T11:23:27.601Z,52.77
2018-04-01T11:25:55.059Z,54.90
2018-04-01T11:28:22.559Z,51.02
2018-04-01T11:30:50.026Z,44.07
2018-04-01T11:33:17.529Z,44.82
2018-04-01T11:35:45.856Z,43.34
2018-04-01T11:38:13.495Z,44.63
2018-04-01T11:40:41.338Z,41.46
2018-04-01T11:43:10.600Z,44.52
2018-04-01T11:45:38.404Z,45.09
2018-04-01T11:48:06.699Z,44.73
2018-04-01T11:50:34.975Z,48.49
2018-04-01T11:53:02.454Z,49.46
2018-04-01T11:55:30.644Z,50.78
2018-04-01T11:57:58.108Z,48.22
2018-04-01T12:00:25.575Z,49.00
2018-04-01T12:02:53.059Z,49.72
2018-04-01T12:05:20.492Z,51.83
2018-04-01T12:07:47.952Z,56.72
2018-04-01T12:10:15.423Z,58.71
2018-04-01T12:12:42.876Z,58.79
2018-04-01T12:15:10.638Z,53.59
2018-04-01T12:17:38.219Z,47.18
2018-04-01T12:20:05.858Z,42.85
2018-04-01T12:22:34.655Z,43.74
2018-04-01T12:25:02.859Z,51.77
2018-04-01T12:27:30.323Z,53.98
2018-04-01T12:29:57.799Z,53.00
2018-04-01T12:32:25.232Z,54.35
2018-04-01T12:34:52.702Z,53.87
2018-04-01T12:37:20.149Z,53.74
2018-04-01T12:39:48.360Z,52.03
2018-04-01T12:42:15.844Z,54.32
2018-04-01T12:44:43.498Z,55.36
2018-04-01T12:47:11.151Z,60.40
2018-04-01T12:49:39.974Z,62.86
2018-04-01T12:52:07.879Z,60.98
2018-04-01T12:54:35.370Z,56.78
2018-04-01T12:57:02.855Z,54.57
2018-04-01T12:59:30.316Z,49.40
2018-04-01T13:01:57.787Z,45.04
2018-04-01T13:04:25.286Z,49.41
2018-04-01T13:06:52.780Z,50.83
2018-04-01T13:09:20.229Z,52.79
2018-04-01T13:11:48.438Z,52.10
2018-04-01T13:14:15.901Z,52.21
2018-04-01T13:16:43.343Z,51.01
2018-04-01T13:19:10.802Z,52.77
2018-04-01T13:21:38.260Z,51.73
2018-04-01T13:24:05.729Z,53.08
2018-04-01T13:26:33.201Z,54.46
2018-04-01T13:29:00.688Z,54.00
2018-04-01T13:31:28.138Z,53.47
2018-04-01T13:33:55.622Z,53.23
2018-04-01T13:36:23.068Z,53.27
2018-04-01T13:38:50.731Z,55.98
2018-04-01T13:41:18.366Z,64.06
2018-04-01T13:43:45.846Z,66.15
2018-04-01T13:46:13.310Z,63.96
2018-04-01T13:48:40.915Z,63.73
2018-04-01T13:51:08.381Z,65.17
2018-04-01T13:53:35.858Z,64.38
2018-04-01T13:56:04.077Z,67.05
2018-04-01T13:58:31.528Z,63.05
2018-04-01T14:00:58.992Z,60.36
2018-04-01T14:03:26.456Z,58.58
2018-04-01T14:05:53.952Z,59.76
2018-04-01T14:08:21.427Z,57.77
2018-04-01T14:10:49.078Z,59.37
2018-04-01T14:13:16.567Z,58.73
2018-04-01T14:15:44.680Z,58.15
2018-04-01T14:18:12.260Z,58.05
2018-04-01T14:20:39.739Z,59.83
2018-04-01T14:23:07.216Z,55.20
2018-04-01T14:25:34.669Z,57.42
2018-04-01T14:28:02.356Z,58.18
2018-04-01T14:30:30.767Z,58.58
2018-04-01T14:32:58.456Z,57.57
2018-04-01T14:35:26.456Z,57.58
2018-04-01T14:37:53.962Z,55.59
2018-04-01T14:40:22.395Z,54.03
2018-04-01T14:42:51.700Z,53.76
2018-04-01T14:45:19.249Z,52.72
2018-04-01T14:47:46.712Z,52.85
2018-04-01T14:50:14.496Z,54.25
2018-04-01T14:52:41.957Z,52.59
2018-04-01T14:55:09.411Z,53.18
2018-04-01T14:57:36.864Z,52.29
2018-04-01T15:00:04.320Z,53.06
2018-04-01T15:02:32.693Z,50.08
2018-04-01T15:05:00.149Z,54.27
2018-04-01T15:07:27.610Z,54.16
2018-04-01T15:09:55.062Z,56.47
2018-04-01T15:12:23.301Z,55.92
2018-04-01T15:14:50.741Z,57.02
2018-04-01T15:17:18.188Z,56.67
2018-04-01T15:19:46.465Z,55.46
2018-04-01T15:22:14.529Z,56.93
2018-04-01T15:24:42.128Z,55.54
2018-04-01T15:27:09.605Z,55.88
2018-04-01T15:29:37.048Z,57.66
2018-04-01T15:32:04.503Z,56.11
2018-04-01T15:34:31.971Z,56.76
2018-04-01T15:36:59.416Z,56.35
2018-04-01T15:39:26.868Z,56.90
2018-04-01T15:41:54.323Z,56.74
2018-04-01T15:44:22.541Z,58.56
2018-04-01T15:46:50.043Z,58.54
2018-04-01T15:49:17.451Z,58.68
2018-04-01T15:51:44.903Z,59.89
2018-04-01T15:54:12.352Z,62.39
2018-04-01T15:56:39.797Z,62.55
2018-04-01T15:59:08.029Z,60.81
2018-04-01T16:01:35.476Z,62.30
2018-04-01T16:04:02.920Z,62.52
2018-04-01T16:06:30.380Z,65.70
2018-04-01T16:08:57.836Z,75.47
2018-04-01T16:11:26.048Z,79.49
2018-04-01T16:13:53.747Z,83.15
2018-04-01T16:16:23.408Z,84.42
2018-04-01T16:18:50.872Z,82.92
2018-04-01T16:21:18.316Z,83.36
2018-04-01T16:23:46.523Z,84.36
2018-04-01T16:26:13.985Z,83.99
2018-04-01T16:28:41.440Z,84.00
2018-04-01T16:31:08.927Z,84.01
2018-04-01T16:33:36.372Z,84.33
2018-04-01T16:36:03.837Z,84.06
2018-04-01T16:38:31.510Z,82.84
2018-04-01T16:40:59.124Z,83.88
2018-04-01T16:43:27.402Z,83.11
2018-04-01T16:45:55.648Z,84.03
2018-04-01T16:48:24.136Z,83.94
2018-04-01T16:50:51.681Z,84.77
2018-04-01T16:53:19.203Z,83.73
2018-04-01T16:55:47.416Z,86.20
2018-04-01T16:58:14.864Z,85.98
2018-04-01T17:00:42.410Z,85.44
2018-04-01T17:03:10.620Z,84.67
2018-04-01T17:05:38.081Z,84.12
2018-04-01T17:08:05.540Z,85.35
2018-04-01T17:10:32.984Z,85.77
2018-04-01T17:13:00.427Z,86.27
2018-04-01T17:15:28.657Z,84.88
2018-04-01T17:17:56.122Z,85.46
2018-04-01T17:20:24.521Z,85.34
2018-04-01T17:22:51.980Z,86.20
2018-04-01T17:25:19.449Z,85.98
2018-04-01T17:27:46.916Z,86.27
2018-04-01T17:30:14.396Z,86.75
2018-04-01T17:32:41.836Z,86.45
2018-04-01T17:35:09.289Z,85.56
2018-04-01T17:37:38.067Z,85.70
2018-04-01T17:40:07.979Z,85.35
2018-04-01T17:42:36.753Z,87.02
2018-04-01T17:45:06.189Z,86.41
2018-04-01T17:47:34.825Z,85.69
2018-04-01T17:50:03.234Z,86.26
2018-04-01T17:52:31.762Z,85.72
2018-04-01T17:55:00.382Z,86.07
2018-04-01T17:57:29.223Z,85.77
2018-04-01T17:59:57.767Z,84.72
2018-04-01T18:02:27.563Z,85.86
2018-04-01T18:04:56.261Z,85.17
2018-04-01T18:07:25.055Z,84.91
2018-04-01T18:09:53.541Z,85.25
2018-04-01T18:12:22.346Z,84.07
2018-04-01T18:14:51.722Z,85.61
2018-04-01T18:17:20.670Z,83.88
2018-04-01T18:19:49.425Z,84.80
2018-04-01T18:22:18.021Z,85.55
2018-04-01T18:24:46.638Z,86.37
2018-04-01T18:27:15.447Z,87.09
2018-04-01T18:29:44.150Z,87.13
2018-04-01T18:32:12.930Z,86.71
2018-04-01T18:34:40.993Z,86.25
2018-04-01T18:37:10.174Z,86.31
2018-04-01T18:39:40.013Z,87.00
2018-04-01T18:42:07.852Z,86.37
2018-04-01T18:44:36.708Z,85.37
2018-04-01T18:47:06.840Z,86.42
2018-04-01T18:49:34.732Z,86.15
2018-04-01T18:52:02.853Z,86.62
2018-04-01T18:54:30.747Z,86.30
2018-04-01T18:56:58.455Z,87.03
2018-04-01T18:59:26.370Z,85.97
2018-04-01T19:01:55.548Z,86.35
2018-04-01T19:04:24.812Z,86.28
2018-04-01T19:06:53.856Z,86.59
2018-04-01T19:09:22.467Z,86.20
2018-04-01T19:11:51.156Z,87.84
2018-04-01T19:14:19.920Z,87.61
2018-04-01T19:17:13.151Z,88.25
2018-04-01T19:19:43.206Z,87.73
2018-04-01T19:22:13.234Z,86.75
2018-04-01T19:24:43.368Z,88.17
2018-04-01T19:27:13.446Z,86.48
2018-04-01T19:29:43.957Z,86.42
2018-04-01T19:32:14.029Z,86.88
2018-04-01T19:34:44.123Z,86.43
2018-04-01T19:37:14.258Z,86.41
2018-04-01T19:39:44.319Z,86.07
2018-04-01T19:42:14.364Z,85.81
2018-04-01T19:44:44.321Z,86.39
2018-04-01T19:47:14.141Z,87.15
2018-04-01T19:49:44.344Z,86.22
2018-04-01T19:52:15.110Z,86.82
2018-04-01T19:54:45.011Z,86.23
2018-04-01T19:57:14.770Z,85.22
2018-04-01T19:59:44.711Z,84.57
2018-04-01T20:02:14.637Z,85.37
2018-04-01T20:04:45.560Z,85.22
2018-04-01T20:07:15.305Z,85.53
2018-04-01T20:09:45.869Z,85.18
2018-04-01T20:12:15.700Z,85.20
2018-04-01T20:14:45.275Z,85.31
2018-04-01T20:17:15.415Z,85.55
2018-04-01T20:19:45.281Z,85.57
2018-04-01T20:22:15.361Z,86.05
2018-04-01T20:24:45.454Z,85.77
2018-04-01T20:27:17.926Z,85.67
2018-04-01T20:29:47.972Z,85.93
2018-04-01T20:32:17.896Z,85.39
2018-04-01T20:34:47.989Z,84.76
2018-04-01T20:37:18.838Z,85.04
2018-04-01T20:39:48.680Z,85.49
2018-04-01T20:42:19.278Z,85.18
2018-04-01T20:44:50.126Z,84.34
2018-04-01T20:47:19.927Z,84.68
2018-04-01T20:49:50.513Z,83.53
2018-04-01T20:52:21.790Z,84.30
2018-04-01T20:54:51.861Z,84.06
2018-04-01T20:57:21.821Z,83.84
2018-04-01T20:59:51.607Z,84.47
2018-04-01T21:02:21.558Z,84.57
2018-04-01T21:04:52.503Z,84.72
2018-04-01T21:07:22.596Z,83.95
2018-04-01T21:09:52.519Z,84.27
2018-04-01T21:12:22.605Z,84.64
2018-04-01T21:14:52.424Z,84.52
2018-04-01T21:17:22.316Z,84.28
2018-04-01T21:19:52.858Z,84.53
2018-04-01T21:22:22.958Z,84.10
2018-04-01T21:24:52.970Z,83.53
2018-04-01T21:27:23.076Z,83.08
2018-04-01T21:29:52.922Z,83.09
2018-04-01T21:32:23.840Z,83.07
2018-04-01T21:34:53.660Z,82.78
2018-04-01T21:37:23.396Z,81.95
2018-04-01T21:39:54.952Z,82.44
2018-04-01T21:42:25.549Z,82.97
2018-04-01T21:44:55.439Z,82.27
2018-04-01T21:47:25.358Z,81.93
2018-04-01T21:49:55.320Z,82.06
2018-04-01T21:52:25.380Z,81.66
2018-04-01T21:54:55.420Z,81.48
2018-04-01T21:57:25.424Z,81.30
2018-04-01T21:59:55.298Z,81.63
2018-04-01T22:02:25.354Z,81.85
2018-04-01T22:04:55.322Z,81.96
2018-04-01T22:07:25.433Z,81.85
2018-04-01T22:09:55.494Z,82.26
2018-04-01T22:12:25.607Z,81.19
2018-04-01T22:14:55.663Z,81.30
2018-04-01T22:17:25.526Z,81.16
2018-04-01T22:19:55.386Z,81.32
2018-04-01T22:22:25.377Z,80.88
2018-04-01T22:24:55.476Z,81.54
2018-04-01T22:27:25.566Z,81.58
2018-04-01T22:29:55.913Z,81.35
2018-04-01T22:32:25.788Z,82.11
2018-04-01T22:34:56.475Z,81.69
2018-04-01T22:37:26.206Z,81.68
2018-04-01T22:39:56.174Z,81.76
2018-04-01T22:42:26.079Z,81.90
2018-04-01T22:44:55.095Z,82.18
2018-04-01T22:47:23.360Z,82.38
2018-04-01T22:49:51.604Z,82.02
2018-04-01T22:52:19.870Z,82.15
2018-04-01T22:54:48.108Z,81.50
2018-04-01T22:57:16.345Z,82.14
2018-04-01T22:59:44.618Z,82.08
2018-04-01T23:02:12.857Z,81.59
2018-04-01T23:04:41.116Z,82.54
2018-04-01T23:07:10.128Z,82.10
2018-04-01T23:09:38.380Z,82.64
2018-04-01T23:12:07.397Z,81.93
2018-04-01T23:14:35.636Z,83.36
2018-04-01T23:17:03.890Z,83.26
2018-04-01T23:19:32.149Z,83.58
2018-04-01T23:22:00.393Z,83.79
2018-04-01T23:24:29.395Z,83.94
2018-04-01T23:26:58.424Z,83.97
2018-04-01T23:29:26.659Z,84.25
2018-04-01T23:31:54.911Z,83.65
2018-04-01T23:34:23.165Z,84.63
2018-04-01T23:36:51.424Z,85.35
2018-04-01T23:39:19.682Z,85.45
2018-04-01T23:41:49.167Z,84.92
2018-04-01T23:44:17.408Z,85.19
2018-04-01T23:46:45.908Z,85.52
2018-04-01T23:49:14.148Z,85.85
2018-04-01T23:51:43.148Z,86.64
2018-04-01T23:54:12.167Z,86.23
2018-04-01T23:56:40.412Z,85.54
2018-04-01T23:59:09.453Z,85.76
